KCAE

Columbia Metropolitan Airport

Columbia, South Carolina, USA
KCAE 242322Z 2500/2524 07008KT P6SM SCT035 BKN080 FM250600 06004KT P6SM FEW008 BKN025 FM250800 05004KT 5SM BR BKN008 FM251400 06006KT P6SM BKN015 FM251700 07007KT P6SM BKN035 FM252000 08006KT P6SM SCT035
Issued Valid From Valid To
Sep-24 @ 23:22 UTC
(2 hours ago)
Sep-25 @ 00:00 UTC
(an hour ago)
Sep-26 @ 00:00 UTC
(in 23 hours)
Sep-25 @ 00:00 to Sep-25 @ 06:00
KCAE 242322Z 2500/2524 07008KT P6SM SCT035 BKN080
Wind Visibility Clouds
70° at 8 knots Greater than 6 miles
  • Scattered at 3,500' AGL
  • Broken at 8,000' AGL
From Sep-25 @ 06:00 to Sep-25 @ 08:00
FM250600 06004KT P6SM FEW008 BKN025
Wind Visibility Clouds
60° at 4 knots Greater than 6 miles
  • Few at 800' AGL
  • Broken at 2,500' AGL
From Sep-25 @ 08:00 to Sep-25 @ 14:00
FM250800 05004KT 5SM BR BKN008
Wind Visibility Clouds Conditions
50° at 4 knots 5 miles
  • Broken at 800' AGL
  • Mist
From Sep-25 @ 14:00 to Sep-25 @ 17:00
FM251400 06006KT P6SM BKN015
Wind Visibility Clouds
60° at 6 knots Greater than 6 miles
  • Broken at 1,500' AGL
From Sep-25 @ 17:00 to Sep-25 @ 20:00
FM251700 07007KT P6SM BKN035
Wind Visibility Clouds
70° at 7 knots Greater than 6 miles
  • Broken at 3,500' AGL
From Sep-25 @ 20:00 to Sep-26 @ 00:00
FM252000 08006KT P6SM SCT035
Wind Visibility Clouds
80° at 6 knots Greater than 6 miles
  • Scattered at 3,500' AGL
KCAE 242322Z 2500/2524 07008KT P6SM SCT035 BKN080 FM250600 06004KT P6SM FEW008 BKN025 FM250800 05004KT 5SM BR BKN008 FM251400 06006KT P6SM BKN015 FM251700 07007KT P6SM BKN035 FM252000 08006KT P6SM SCT035
Issued Sep-24 @ 23:22 UTC
(2 hours ago)
Valid From Sep-25 @ 00:00 UTC
(an hour ago)
Valid To Sep-26 @ 00:00 UTC
(in 23 hours)
Sep-25 @ 00:00 - Sep-25 @ 06:00
Wind Visibility
70° at 8 knots Greater than 6 miles
Clouds
  • Scattered at 3,500' AGL
  • Broken at 8,000' AGL
From Sep-25 @ 06:00 - Sep-25 @ 08:00
Wind Visibility
60° at 4 knots Greater than 6 miles
Clouds
  • Few at 800' AGL
  • Broken at 2,500' AGL
From Sep-25 @ 08:00 - Sep-25 @ 14:00
Wind Visibility
50° at 4 knots 5 miles
Clouds
  • Broken at 800' AGL
Conditions
  • Mist
From Sep-25 @ 14:00 - Sep-25 @ 17:00
Wind Visibility
60° at 6 knots Greater than 6 miles
Clouds
  • Broken at 1,500' AGL
From Sep-25 @ 17:00 - Sep-25 @ 20:00
Wind Visibility
70° at 7 knots Greater than 6 miles
Clouds
  • Broken at 3,500' AGL
From Sep-25 @ 20:00 - Sep-26 @ 00:00
Wind Visibility
80° at 6 knots Greater than 6 miles
Clouds
  • Scattered at 3,500' AGL